Time;durP1;ratioP1;P1;durP2;ratioP2;P2;SDS_P1;SDS_P2;PMS_P1;PMS_P2;Temp;Humidity;BMP_temperature;BMP_pressure;BME280_temperature;BME280_humidity;BME280_pressure;Samples;Min_cycle;Max_cycle;Signal;HPM_P1;HPM_P2
2023/12/15 00:00:34;;;;;;;16.83;12.57;;;7.10;91.10;;;;;;5107019;28;20493;-78
2023/12/15 00:02:59;;;;;;;18.30;13.50;;;7.20;91.20;;;;;;5111350;28;20045;-78
2023/12/15 00:05:25;;;;;;;17.67;13.18;;;7.20;91.20;;;;;;5124028;27;20035;-78
2023/12/15 00:07:51;;;;;;;22.48;13.57;;;7.20;91.20;;;;;;5110805;27;20039;-78
2023/12/15 00:10:16;;;;;;;18.30;13.43;;;7.20;91.20;;;;;;5130364;27;20053;-78
2023/12/15 00:12:42;;;;;;;17.77;13.25;;;7.20;91.20;;;;;;5105389;27;20096;-78
2023/12/15 00:15:08;;;;;;;19.50;14.82;;;7.20;91.20;;;;;;5127417;27;20508;-79
2023/12/15 00:17:34;;;;;;;20.92;14.73;;;7.20;91.20;;;;;;5090932;27;20063;-78
2023/12/15 00:20:00;;;;;;;21.27;14.55;;;7.20;91.20;;;;;;5129002;27;20063;-78
2023/12/15 00:22:25;;;;;;;19.40;14.65;;;7.20;91.20;;;;;;5091034;27;20112;-78
2023/12/15 00:24:51;;;;;;;19.98;15.30;;;7.20;91.20;;;;;;5130662;27;20031;-78
2023/12/15 00:27:17;;;;;;;18.52;13.63;;;7.20;91.30;;;;;;5110070;28;20241;-78
2023/12/15 00:29:42;;;;;;;18.65;15.23;;;7.20;91.30;;;;;;5130692;27;20050;-78
2023/12/15 00:32:08;;;;;;;22.25;16.17;;;7.20;91.30;;;;;;5129408;27;20184;-78
2023/12/15 00:34:33;;;;;;;22.40;16.23;;;7.30;91.30;;;;;;5110674;28;20046;-78
2023/12/15 00:36:59;;;;;;;21.65;16.13;;;7.20;91.40;;;;;;5129809;28;20541;-78
2023/12/15 00:39:25;;;;;;;25.95;18.20;;;7.30;91.40;;;;;;5127945;28;20035;-78
2023/12/15 00:41:50;;;;;;;23.00;16.85;;;7.30;91.40;;;;;;5108154;28;20482;-78
2023/12/15 00:44:16;;;;;;;24.55;17.45;;;7.30;91.50;;;;;;5107234;28;20139;-78
2023/12/15 00:46:41;;;;;;;21.05;15.55;;;8.00;91.70;;;;;;5128889;28;20103;-78
2023/12/15 00:49:07;;;;;;;30.50;18.92;;;7.30;91.50;;;;;;5107360;28;20035;-78
2023/12/15 00:51:32;;;;;;;23.92;18.30;;;7.30;91.50;;;;;;5128671;28;20489;-78
2023/12/15 00:53:58;;;;;;;24.17;18.65;;;7.30;91.60;;;;;;5127034;28;20045;-77
2023/12/15 00:56:24;;;;;;;28.00;19.58;;;7.30;91.60;;;;;;5125941;28;20546;-77
2023/12/15 00:58:49;;;;;;;28.58;20.80;;;7.30;91.60;;;;;;5109449;28;20031;-78
2023/12/15 01:01:15;;;;;;;25.45;19.52;;;7.40;91.60;;;;;;5107935;28;20039;-78
2023/12/15 01:03:40;;;;;;;24.13;19.48;;;7.40;91.70;;;;;;5128233;28;20023;-77
2023/12/15 01:06:07;;;;;;;24.88;19.08;;;7.40;91.70;;;;;;5128891;28;20027;-77
2023/12/15 01:08:32;;;;;;;28.60;19.98;;;7.40;91.70;;;;;;5129966;28;20043;-77
2023/12/15 01:10:58;;;;;;;31.40;20.58;;;7.40;91.70;;;;;;5110429;28;20126;-78
2023/12/15 01:13:23;;;;;;;28.20;20.25;;;7.40;91.70;;;;;;5128401;27;20399;-78
2023/12/15 01:15:49;;;;;;;27.15;20.13;;;7.40;91.80;;;;;;5134335;27;20035;-77
2023/12/15 01:18:15;;;;;;;28.83;20.88;;;7.40;91.80;;;;;;5113270;27;20464;-77
2023/12/15 01:20:40;;;;;;;31.92;21.30;;;7.40;91.80;;;;;;5137870;27;20039;-77
2023/12/15 01:23:06;;;;;;;28.13;19.90;;;7.40;92.00;;;;;;5112167;27;20042;-77
2023/12/15 01:25:32;;;;;;;26.70;20.20;;;7.40;91.80;;;;;;5115504;27;20114;-77
2023/12/15 01:27:57;;;;;;;30.02;20.58;;;7.40;91.80;;;;;;5114614;27;20541;-77
2023/12/15 01:30:23;;;;;;;32.65;21.60;;;7.40;91.80;;;;;;5134025;27;20176;-77
2023/12/15 01:32:48;;;;;;;29.75;21.50;;;7.50;91.90;;;;;;5112812;27;20046;-77
2023/12/15 01:35:14;;;;;;;30.73;21.20;;;7.50;91.90;;;;;;5114322;27;20071;-77
2023/12/15 01:37:40;;;;;;;29.73;20.75;;;7.50;91.90;;;;;;5128665;27;20051;-77
2023/12/15 01:40:07;;;;;;;33.42;21.98;;;7.50;91.90;;;;;;5113051;27;20495;-77
2023/12/15 01:42:32;;;;;;;29.00;20.52;;;7.50;92.00;;;;;;5131393;27;20033;-77
2023/12/15 01:44:58;;;;;;;31.95;20.38;;;7.50;92.00;;;;;;5111633;27;20039;-77
2023/12/15 01:47:24;;;;;;;25.50;19.35;;;7.50;92.00;;;;;;5114892;27;20031;-77
2023/12/15 01:49:51;;;;;;;33.83;21.50;;;7.50;92.00;;;;;;5113516;27;20132;-77
2023/12/15 01:52:17;;;;;;;25.52;19.88;;;7.50;92.00;;;;;;5110706;27;20043;-77
2023/12/15 01:54:42;;;;;;;32.47;20.10;;;7.50;92.00;;;;;;5132015;27;20416;-77
2023/12/15 01:57:08;;;;;;;28.90;19.80;;;7.50;92.00;;;;;;5132177;27;20037;-77
2023/12/15 01:59:50;;;;;;;32.58;20.23;;;7.50;92.00;;;;;;5131478;27;20031;-77
2023/12/15 02:02:16;;;;;;;25.27;19.50;;;7.50;92.10;;;;;;5113951;27;20482;-77
2023/12/15 02:04:42;;;;;;;28.67;19.45;;;7.50;92.00;;;;;;5110092;27;20638;-77
2023/12/15 02:07:08;;;;;;;30.20;19.48;;;7.50;92.00;;;;;;5131287;27;20133;-77
2023/12/15 02:09:34;;;;;;;28.58;20.00;;;7.50;92.10;;;;;;5128501;27;20133;-77
2023/12/15 02:12:00;;;;;;;28.73;18.77;;;7.60;92.10;;;;;;5128576;27;20136;-77
2023/12/15 02:14:26;;;;;;;26.52;18.30;;;7.60;92.10;;;;;;5111410;27;20339;-77
2023/12/15 02:16:51;;;;;;;29.20;18.65;;;7.60;92.10;;;;;;5113873;27;20039;-77
2023/12/15 02:19:17;;;;;;;29.48;20.55;;;7.60;92.10;;;;;;5127410;27;20036;-77
2023/12/15 02:21:42;;;;;;;30.05;19.52;;;7.60;92.10;;;;;;5132317;27;20054;-77
2023/12/15 02:24:08;;;;;;;25.33;18.48;;;7.60;92.00;;;;;;5129708;27;20042;-77
2023/12/15 02:26:34;;;;;;;26.27;18.92;;;7.60;92.00;;;;;;5107991;27;20164;-77
2023/12/15 02:28:59;;;;;;;28.58;20.17;;;7.60;92.00;;;;;;5129189;27;20028;-77
2023/12/15 02:31:25;;;;;;;29.50;20.20;;;7.60;92.00;;;;;;5114627;27;20070;-77
2023/12/15 02:33:53;;;;;;;28.20;18.88;;;7.60;92.00;;;;;;5094500;27;20464;-77
2023/12/15 02:36:23;;;;;;;27.88;19.27;;;7.60;92.00;;;;;;5127761;27;20562;-77
2023/12/15 02:38:49;;;;;;;30.83;20.17;;;7.60;92.00;;;;;;5110817;27;20051;-77
2023/12/15 02:41:14;;;;;;;26.67;19.05;;;7.60;92.00;;;;;;5131643;27;20141;-78
2023/12/15 02:43:40;;;;;;;27.13;19.92;;;7.60;92.00;;;;;;5128413;27;20031;-78
2023/12/15 02:46:06;;;;;;;31.67;19.83;;;7.60;92.00;;;;;;5132459;27;20495;-78
2023/12/15 02:48:32;;;;;;;30.65;20.20;;;7.60;92.00;;;;;;5127913;27;20388;-78
2023/12/15 02:50:58;;;;;;;26.77;19.95;;;7.60;92.00;;;;;;5110004;27;20455;-78
2023/12/15 02:53:24;;;;;;;29.05;21.08;;;7.60;92.00;;;;;;5109686;27;20103;-78
2023/12/15 02:55:49;;;;;;;30.23;19.08;;;7.60;92.00;;;;;;5130018;27;20039;-78
2023/12/15 02:58:18;;;;;;;27.38;19.15;;;7.60;92.00;;;;;;5125218;27;20023;-78
2023/12/15 03:00:46;;;;;;;30.70;19.38;;;7.60;92.00;;;;;;5111605;27;20035;-78
2023/12/15 03:03:12;;;;;;;26.85;19.45;;;7.60;92.00;;;;;;5129873;27;20041;-78
2023/12/15 03:05:37;;;;;;;25.50;18.20;;;7.60;92.00;;;;;;5127301;27;20043;-78
2023/12/15 03:08:03;;;;;;;26.35;17.50;;;7.60;92.00;;;;;;5112794;27;20216;-77
2023/12/15 03:10:29;;;;;;;29.10;18.60;;;7.60;92.00;;;;;;5130004;27;20518;-77
2023/12/15 03:12:54;;;;;;;27.27;19.67;;;7.60;92.00;;;;;;5131946;27;20058;-77
2023/12/15 03:15:20;;;;;;;24.15;17.20;;;7.60;92.00;;;;;;5111453;27;20036;-78
2023/12/15 03:17:45;;;;;;;24.13;17.63;;;7.60;92.00;;;;;;5114051;27;20035;-77
2023/12/15 03:20:11;;;;;;;29.48;18.77;;;7.60;92.00;;;;;;5111785;27;20496;-78
2023/12/15 03:22:37;;;;;;;30.05;17.77;;;7.60;92.00;;;;;;5113848;27;20088;-77
2023/12/15 03:25:06;;;;;;;26.52;17.98;;;7.60;92.00;;;;;;5094727;27;20035;-78
2023/12/15 03:27:32;;;;;;;25.35;18.75;;;7.60;92.00;;;;;;5110599;27;20080;-78
2023/12/15 03:29:58;;;;;;;27.77;17.83;;;7.60;92.00;;;;;;5109772;27;20405;-78
2023/12/15 03:32:24;;;;;;;23.52;16.98;;;7.60;92.00;;;;;;5110411;27;20485;-77
2023/12/15 03:34:50;;;;;;;25.65;18.40;;;7.60;92.00;;;;;;5128679;27;20080;-78
2023/12/15 03:37:16;;;;;;;25.80;17.65;;;7.50;92.00;;;;;;5124664;27;20039;-77
2023/12/15 03:39:42;;;;;;;22.80;16.70;;;7.60;92.00;;;;;;5110281;27;20481;-77
2023/12/15 03:42:08;;;;;;;28.67;18.80;;;7.50;92.00;;;;;;5128233;27;20031;-77
2023/12/15 03:44:34;;;;;;;26.00;17.73;;;7.50;91.90;;;;;;5128962;27;20175;-77
2023/12/15 03:47:00;;;;;;;28.75;19.77;;;7.50;91.90;;;;;;5126412;27;20122;-77
2023/12/15 03:49:25;;;;;;;28.98;18.02;;;7.50;91.90;;;;;;5128167;27;20027;-77
2023/12/15 03:51:51;;;;;;;26.02;17.00;;;7.50;91.90;;;;;;5090760;27;20043;-77
2023/12/15 03:54:16;;;;;;;26.73;18.05;;;7.50;91.90;;;;;;5129030;27;20038;-77
2023/12/15 03:56:42;;;;;;;28.33;17.63;;;7.50;91.80;;;;;;5110668;27;20034;-77
2023/12/15 03:59:08;;;;;;;23.75;17.00;;;7.50;91.80;;;;;;5086419;27;20080;-77
2023/12/15 04:01:33;;;;;;;27.42;17.88;;;7.50;91.80;;;;;;5091151;28;20066;-77
2023/12/15 04:03:59;;;;;;;24.38;17.02;;;7.50;91.80;;;;;;5109967;27;20095;-77
2023/12/15 04:06:24;;;;;;;23.88;17.30;;;7.50;91.80;;;;;;5126622;27;20034;-77
2023/12/15 04:08:50;;;;;;;22.30;16.45;;;7.50;91.70;;;;;;5131095;27;21286;-77
2023/12/15 04:11:16;;;;;;;24.00;16.90;;;7.40;91.70;;;;;;5107706;27;20049;-77
2023/12/15 04:13:42;;;;;;;29.60;17.67;;;7.40;91.70;;;;;;5112255;27;20042;-77
2023/12/15 04:16:08;;;;;;;28.15;18.80;;;7.40;91.60;;;;;;5130264;27;20485;-77
2023/12/15 04:18:34;;;;;;;24.45;17.02;;;7.40;91.60;;;;;;5111398;27;20043;-77
2023/12/15 04:21:03;;;;;;;25.77;17.85;;;7.40;91.60;;;;;;5125745;27;20123;-77
2023/12/15 04:23:28;;;;;;;27.90;18.30;;;7.40;91.60;;;;;;5112376;27;20043;-78
2023/12/15 04:25:57;;;;;;;24.95;17.73;;;7.40;91.60;;;;;;5094846;28;20172;-78
2023/12/15 04:28:24;;;;;;;26.15;16.70;;;7.30;91.60;;;;;;5111529;27;20119;-77
2023/12/15 04:30:49;;;;;;;26.50;18.42;;;7.30;91.60;;;;;;5107646;27;20039;-77
2023/12/15 04:33:15;;;;;;;21.50;15.60;;;7.30;91.60;;;;;;5111651;28;20423;-77
2023/12/15 04:35:41;;;;;;;25.85;16.80;;;7.30;91.50;;;;;;5093027;28;20036;-77
2023/12/15 04:38:06;;;;;;;27.63;18.77;;;7.30;91.60;;;;;;5095036;28;20387;-78
2023/12/15 04:40:32;;;;;;;26.85;17.92;;;7.30;91.60;;;;;;5107635;28;20038;-78
2023/12/15 04:42:57;;;;;;;22.92;16.13;;;7.20;91.50;;;;;;5112058;28;20032;-78
2023/12/15 04:45:23;;;;;;;25.80;17.60;;;7.30;91.50;;;;;;5129748;28;20039;-78
2023/12/15 04:47:48;;;;;;;22.80;16.67;;;7.20;91.50;;;;;;5110147;27;20035;-78
2023/12/15 04:50:14;;;;;;;27.42;16.80;;;7.20;91.60;;;;;;5114065;27;20039;-78
2023/12/15 04:52:39;;;;;;;24.30;17.33;;;7.20;91.50;;;;;;5098861;27;20044;-78
2023/12/15 04:55:05;;;;;;;25.33;17.40;;;7.20;91.50;;;;;;5114717;27;20063;-78
2023/12/15 04:57:31;;;;;;;24.73;17.15;;;7.20;91.50;;;;;;5115327;27;20064;-78
2023/12/15 04:59:57;;;;;;;23.60;16.23;;;7.20;91.50;;;;;;5115896;27;20478;-78
2023/12/15 05:02:22;;;;;;;26.98;17.50;;;7.20;91.50;;;;;;5114500;27;20027;-78
2023/12/15 05:04:48;;;;;;;24.30;17.50;;;7.20;91.60;;;;;;5094244;27;20508;-78
2023/12/15 05:07:13;;;;;;;28.42;18.80;;;7.20;91.60;;;;;;5114810;27;20134;-77
2023/12/15 05:09:39;;;;;;;25.70;18.38;;;7.20;91.70;;;;;;5098576;27;20062;-77
2023/12/15 05:12:06;;;;;;;26.60;18.30;;;7.20;91.60;;;;;;5109859;27;20054;-78
2023/12/15 05:14:31;;;;;;;24.52;16.83;;;7.20;91.70;;;;;;5112081;27;20039;-78
2023/12/15 05:16:57;;;;;;;25.48;17.95;;;7.20;91.70;;;;;;5096693;27;20027;-78
2023/12/15 05:19:22;;;;;;;26.77;15.85;;;7.20;91.80;;;;;;5135173;27;20438;-78
2023/12/15 05:21:48;;;;;;;32.83;20.08;;;7.20;91.80;;;;;;5109273;27;20084;-78
2023/12/15 05:24:15;;;;;;;26.10;16.45;;;7.20;91.80;;;;;;5111627;27;20054;-78
2023/12/15 05:26:40;;;;;;;22.48;16.45;;;7.20;91.90;;;;;;5131792;27;20416;-78
2023/12/15 05:29:06;;;;;;;24.15;17.02;;;7.20;91.90;;;;;;5133864;27;20034;-78
2023/12/15 05:31:31;;;;;;;24.67;16.50;;;7.20;91.90;;;;;;5112446;27;20421;-78
2023/12/15 05:33:57;;;;;;;27.02;17.73;;;7.20;91.90;;;;;;5109405;27;20039;-78
2023/12/15 05:36:23;;;;;;;24.63;17.73;;;7.20;91.90;;;;;;5110290;27;20058;-78
2023/12/15 05:38:48;;;;;;;26.40;16.30;;;7.20;91.90;;;;;;5112340;27;20118;-78
2023/12/15 05:41:14;;;;;;;25.40;17.40;;;7.20;91.90;;;;;;5131704;27;20063;-78
2023/12/15 05:43:40;;;;;;;22.48;16.70;;;7.20;91.90;;;;;;5114405;27;20047;-78
2023/12/15 05:46:06;;;;;;;26.45;17.52;;;7.20;91.90;;;;;;5112158;27;20038;-78
2023/12/15 05:48:32;;;;;;;24.83;16.60;;;7.20;91.90;;;;;;5114902;27;20038;-78
2023/12/15 05:50:58;;;;;;;27.90;17.83;;;7.20;91.90;;;;;;5114694;27;20043;-78
2023/12/15 05:53:23;;;;;;;26.70;16.98;;;7.20;91.80;;;;;;5112706;27;20779;-78
2023/12/15 05:55:49;;;;;;;22.25;16.02;;;7.20;91.80;;;;;;5132112;27;20038;-78
2023/12/15 05:58:14;;;;;;;24.88;16.95;;;7.20;91.80;;;;;;5114499;27;20042;-78
2023/12/15 06:00:40;;;;;;;22.05;16.15;;;7.20;91.80;;;;;;5111432;27;20039;-79
2023/12/15 06:03:06;;;;;;;27.75;16.23;;;7.20;91.80;;;;;;5112403;27;20038;-79
2023/12/15 06:05:34;;;;;;;24.27;15.88;;;7.20;91.80;;;;;;5109388;27;20047;-79
2023/12/15 06:08:03;;;;;;;26.27;15.98;;;7.20;91.80;;;;;;5108632;27;20063;-79
2023/12/15 06:10:29;;;;;;;30.05;16.13;;;7.20;91.80;;;;;;5131919;27;20043;-79
2023/12/15 06:12:55;;;;;;;22.13;14.38;;;7.20;91.80;;;;;;5131627;27;20039;-79
2023/12/15 06:15:20;;;;;;;26.45;16.13;;;7.20;91.70;;;;;;5097427;27;20117;-79
2023/12/15 06:17:46;;;;;;;23.02;14.57;;;7.20;91.70;;;;;;5109810;27;20450;-79
2023/12/15 06:20:14;;;;;;;24.25;16.48;;;7.20;91.70;;;;;;5132005;27;20031;-79
2023/12/15 06:22:40;;;;;;;25.95;16.55;;;7.20;91.70;;;;;;5113474;27;20032;-79
2023/12/15 06:25:07;;;;;;;25.13;15.30;;;7.20;91.70;;;;;;5130992;27;20039;-79
2023/12/15 06:27:33;;;;;;;26.67;16.10;;;7.20;91.70;;;;;;5130507;27;20106;-79
2023/12/15 06:29:58;;;;;;;25.85;15.48;;;7.20;91.70;;;;;;5113741;27;20114;-79
2023/12/15 06:32:24;;;;;;;27.05;15.75;;;7.20;91.60;;;;;;5115962;27;20042;-79
2023/12/15 06:34:50;;;;;;;24.55;15.05;;;7.30;91.70;;;;;;5131521;27;20126;-79
2023/12/15 06:37:15;;;;;;;24.98;15.32;;;7.20;91.60;;;;;;5130204;27;20082;-79
2023/12/15 06:39:41;;;;;;;26.00;16.80;;;7.10;91.60;;;;;;5113413;27;20102;-78
2023/12/15 06:42:06;;;;;;;27.08;15.60;;;7.10;91.60;;;;;;5113752;27;20041;-78
2023/12/15 06:44:32;;;;;;;23.30;15.75;;;7.10;91.60;;;;;;5131824;27;20032;-78
2023/12/15 06:46:58;;;;;;;24.73;15.93;;;7.10;91.60;;;;;;5110486;27;20572;-79
2023/12/15 06:49:30;;;;;;;24.33;15.07;;;7.10;91.60;;;;;;5114923;27;20035;-79
2023/12/15 06:51:59;;;;;;;24.77;15.27;;;7.10;91.60;;;;;;5110103;27;20059;-78
2023/12/15 06:54:25;;;;;;;27.88;15.15;;;7.10;91.60;;;;;;5109861;27;20035;-79
2023/12/15 06:56:51;;;;;;;26.08;15.00;;;7.10;91.60;;;;;;5108215;27;20089;-79
2023/12/15 06:59:17;;;;;;;22.73;14.77;;;7.10;91.60;;;;;;5094294;27;20123;-78
2023/12/15 07:01:42;;;;;;;21.55;14.82;;;7.10;91.60;;;;;;5128223;27;20411;-78
2023/12/15 07:04:08;;;;;;;23.40;15.43;;;7.10;91.60;;;;;;5129941;27;20053;-78
2023/12/15 07:06:34;;;;;;;24.42;15.15;;;7.10;91.60;;;;;;5112316;27;20059;-78
2023/12/15 07:08:59;;;;;;;21.00;14.32;;;7.10;91.60;;;;;;5109500;27;20042;-78
2023/12/15 07:11:25;;;;;;;24.27;15.45;;;7.10;91.60;;;;;;5115787;27;20063;-78
2023/12/15 07:13:51;;;;;;;24.00;15.20;;;7.10;91.60;;;;;;5112254;27;20050;-78
2023/12/15 07:16:16;;;;;;;26.77;14.77;;;7.10;91.60;;;;;;5106346;27;20031;-78
2023/12/15 07:18:42;;;;;;;28.05;15.38;;;7.10;91.60;;;;;;5093492;27;20066;-78
2023/12/15 07:21:08;;;;;;;23.40;15.20;;;7.10;91.60;;;;;;5110896;27;20042;-78
2023/12/15 07:23:34;;;;;;;21.10;14.48;;;7.10;91.60;;;;;;5111199;27;20160;-78
2023/12/15 07:26:00;;;;;;;24.08;14.93;;;7.10;91.60;;;;;;5092305;27;20035;-78
2023/12/15 07:28:26;;;;;;;24.63;14.43;;;7.10;91.60;;;;;;5110816;27;20776;-78
2023/12/15 07:30:51;;;;;;;20.45;14.05;;;7.10;91.60;;;;;;5092836;27;20039;-78
2023/12/15 07:33:17;;;;;;;22.05;14.00;;;7.10;91.60;;;;;;5113367;27;20393;-78
2023/12/15 07:35:43;;;;;;;22.27;14.00;;;7.10;91.60;;;;;;5109287;27;20077;-78
2023/12/15 07:38:09;;;;;;;23.20;12.82;;;7.10;91.60;;;;;;5103249;27;20481;-78
2023/12/15 07:40:35;;;;;;;18.52;12.15;;;7.10;91.60;;;;;;5105825;27;20074;-78
2023/12/15 07:43:01;;;;;;;20.35;13.70;;;7.10;91.60;;;;;;5111429;27;20039;-78
2023/12/15 07:45:27;;;;;;;23.20;13.60;;;7.00;91.50;;;;;;5112100;27;20031;-78
2023/12/15 07:47:53;;;;;;;22.88;14.45;;;7.10;91.50;;;;;;5110741;27;20084;-78
2023/12/15 07:50:19;;;;;;;20.85;12.65;;;7.10;91.50;;;;;;5109213;27;20073;-78
2023/12/15 07:52:45;;;;;;;22.08;12.27;;;7.00;91.50;;;;;;5109551;27;20039;-78
2023/12/15 07:55:11;;;;;;;20.50;12.45;;;7.00;91.50;;;;;;5108921;27;20050;-78
2023/12/15 07:57:36;;;;;;;22.60;13.52;;;7.00;91.50;;;;;;5104701;27;20039;-78
2023/12/15 08:00:05;;;;;;;24.73;14.07;;;7.00;91.50;;;;;;5127521;27;20052;-78
2023/12/15 08:02:31;;;;;;;20.40;13.45;;;7.00;91.50;;;;;;5127803;27;20485;-78
2023/12/15 08:04:57;;;;;;;18.10;12.80;;;7.00;91.50;;;;;;5106964;27;20031;-78
2023/12/15 08:07:22;;;;;;;21.30;11.88;;;7.00;91.50;;;;;;5109461;27;20462;-78
2023/12/15 08:09:48;;;;;;;19.40;12.98;;;7.00;91.50;;;;;;5110642;28;20067;-78
2023/12/15 08:12:13;;;;;;;27.92;15.65;;;7.00;91.50;;;;;;5109240;27;20111;-78
2023/12/15 08:14:39;;;;;;;28.02;22.08;;;7.00;91.50;;;;;;5104054;27;20462;-76
2023/12/15 08:17:05;;;;;;;27.55;18.98;;;7.00;91.50;;;;;;5104447;27;20417;-78
2023/12/15 08:19:31;;;;;;;25.98;19.33;;;7.00;91.50;;;;;;5087638;28;20053;-78
2023/12/15 08:21:58;;;;;;;27.88;18.35;;;7.00;91.50;;;;;;5087336;27;20027;-79
2023/12/15 08:24:24;;;;;;;26.42;14.60;;;7.00;91.50;;;;;;5085254;28;20050;-77
2023/12/15 08:26:49;;;;;;;32.60;18.20;;;6.90;91.50;;;;;;5110729;28;20031;-78
2023/12/15 08:29:15;;;;;;;25.73;17.40;;;6.90;91.50;;;;;;5091573;28;20042;-78
2023/12/15 08:31:41;;;;;;;25.50;13.13;;;6.90;91.60;;;;;;5124508;27;20066;-79
2023/12/15 08:34:06;;;;;;;27.60;14.10;;;6.90;91.60;;;;;;5108349;28;20099;-78
2023/12/15 08:36:32;;;;;;;23.15;12.90;;;7.00;91.60;;;;;;5085677;28;20407;-79
2023/12/15 08:38:57;;;;;;;22.10;12.35;;;7.00;91.60;;;;;;5085923;28;20063;-79
2023/12/15 08:41:23;;;;;;;21.90;12.50;;;6.90;91.60;;;;;;5069694;28;20036;-79
2023/12/15 08:43:49;;;;;;;18.73;11.38;;;6.90;91.60;;;;;;5087302;28;20071;-78
2023/12/15 08:46:14;;;;;;;24.42;12.25;;;6.90;91.60;;;;;;5087523;28;20386;-78
2023/12/15 08:48:40;;;;;;;17.92;10.88;;;7.00;91.60;;;;;;5088245;28;20028;-78
2023/12/15 08:51:05;;;;;;;18.25;10.90;;;6.90;91.60;;;;;;5086457;28;20155;-79
2023/12/15 08:53:31;;;;;;;23.25;10.93;;;6.90;91.70;;;;;;5071019;28;20040;-79
2023/12/15 08:55:56;;;;;;;24.70;11.75;;;6.90;91.70;;;;;;5087108;28;20055;-78
2023/12/15 08:58:23;;;;;;;18.85;10.57;;;6.90;91.70;;;;;;5066898;28;20046;-78
2023/12/15 09:00:49;;;;;;;22.80;10.82;;;6.90;91.70;;;;;;5069607;28;20040;-78
2023/12/15 09:03:15;;;;;;;20.73;11.35;;;6.80;91.70;;;;;;5087517;28;20032;-78
2023/12/15 09:05:40;;;;;;;21.80;11.38;;;6.80;91.80;;;;;;5084694;28;20059;-78
2023/12/15 09:08:06;;;;;;;22.50;10.85;;;6.80;91.70;;;;;;5087628;28;20039;-78
2023/12/15 09:10:34;;;;;;;20.05;9.70;;;6.80;91.70;;;;;;5070630;28;20145;-78
2023/12/15 09:13:02;;;;;;;23.30;10.13;;;6.70;91.70;;;;;;5087895;28;20140;-78
2023/12/15 09:15:29;;;;;;;20.70;9.73;;;6.80;91.80;;;;;;5088489;28;20044;-78
2023/12/15 09:17:54;;;;;;;23.55;9.45;;;6.70;91.80;;;;;;5077234;28;20040;-78
2023/12/15 09:20:20;;;;;;;20.55;9.52;;;6.70;91.80;;;;;;5064467;28;20407;-78
2023/12/15 09:22:46;;;;;;;26.90;10.00;;;6.70;91.90;;;;;;5082598;28;20040;-77
2023/12/15 09:25:12;;;;;;;24.50;10.95;;;6.90;92.00;;;;;;5089528;28;20032;-77
2023/12/15 09:27:38;;;;;;;23.55;9.50;;;6.70;92.00;;;;;;5087532;28;20036;-78
2023/12/15 09:30:04;;;;;;;23.05;8.82;;;6.70;92.00;;;;;;5070877;28;20392;-78
2023/12/15 09:32:29;;;;;;;25.00;10.02;;;6.70;92.10;;;;;;5087646;28;20489;-78
2023/12/15 09:34:55;;;;;;;25.20;9.55;;;6.70;92.10;;;;;;5089241;28;20040;-78
2023/12/15 09:37:20;;;;;;;20.83;7.18;;;6.70;92.20;;;;;;5096890;27;20048;-78
2023/12/15 09:39:46;;;;;;;23.98;8.98;;;6.70;92.30;;;;;;5091064;28;20042;-78
2023/12/15 09:42:11;;;;;;;23.58;8.77;;;6.70;92.30;;;;;;5074794;28;20040;-78
2023/12/15 09:44:37;;;;;;;22.65;8.95;;;6.70;92.40;;;;;;5091218;28;20036;-78
2023/12/15 09:47:03;;;;;;;24.42;7.32;;;6.70;92.40;;;;;;5092337;28;20078;-78
2023/12/15 09:49:31;;;;;;;20.13;7.22;;;6.70;92.70;;;;;;5092206;28;20064;-78
2023/12/15 09:52:02;;;;;;;25.15;7.95;;;6.80;92.60;;;;;;5091530;28;20070;-79
2023/12/15 09:54:28;;;;;;;29.02;8.82;;;6.80;92.60;;;;;;5089014;28;20222;-78
2023/12/15 09:56:54;;;;;;;31.67;9.95;;;6.80;92.70;;;;;;5091399;28;20122;-77
2023/12/15 09:59:21;;;;;;;28.67;8.35;;;6.80;92.70;;;;;;5074471;28;20036;-77
2023/12/15 10:01:47;;;;;;;22.67;7.60;;;6.80;92.70;;;;;;5073670;28;20048;-77
2023/12/15 10:04:13;;;;;;;22.92;7.95;;;6.80;92.80;;;;;;5089901;28;20055;-77
2023/12/15 10:06:39;;;;;;;28.08;8.48;;;6.80;92.80;;;;;;5087000;28;20487;-77
2023/12/15 10:09:12;;;;;;;28.58;8.20;;;6.80;92.80;;;;;;5073874;28;20040;-77
2023/12/15 10:11:39;;;;;;;23.45;8.23;;;6.90;92.90;;;;;;5071966;28;20172;-77
2023/12/15 10:14:07;;;;;;;31.20;8.25;;;6.90;92.90;;;;;;5090641;28;20062;-77
2023/12/15 10:16:37;;;;;;;24.40;8.05;;;6.90;93.00;;;;;;5090154;28;20498;-77
2023/12/15 10:19:04;;;;;;;27.13;7.88;;;6.90;93.00;;;;;;5089590;28;20076;-77
2023/12/15 10:21:34;;;;;;;22.27;7.15;;;6.90;93.10;;;;;;5073458;28;20140;-77
2023/12/15 10:24:16;;;;;;;31.23;8.13;;;6.90;93.10;;;;;;5073430;28;20057;-77
2023/12/15 10:26:42;;;;;;;25.92;8.73;;;7.00;93.10;;;;;;5080158;28;20368;-77
2023/12/15 10:29:08;;;;;;;27.08;8.15;;;7.00;93.10;;;;;;5063203;28;20043;-77
2023/12/15 10:31:33;;;;;;;27.15;7.18;;;7.00;93.10;;;;;;5065878;28;20044;-77
2023/12/15 10:33:59;;;;;;;27.98;7.57;;;7.00;93.40;;;;;;5072280;28;20529;-77
2023/12/15 10:36:25;;;;;;;24.20;7.70;;;7.00;93.20;;;;;;5094316;28;20047;-77
2023/12/15 10:38:51;;;;;;;22.42;6.78;;;7.00;93.20;;;;;;5092574;28;20415;-77
2023/12/15 10:41:18;;;;;;;26.25;7.20;;;7.00;93.20;;;;;;5106936;28;20039;-77
2023/12/15 10:43:47;;;;;;;29.95;7.90;;;7.00;93.30;;;;;;5103406;28;20081;-77
2023/12/15 10:46:14;;;;;;;23.05;7.22;;;7.10;93.30;;;;;;5084536;28;20127;-77
2023/12/15 10:48:41;;;;;;;32.33;8.07;;;7.10;93.50;;;;;;5091125;28;20100;-81
2023/12/15 10:51:08;;;;;;;29.00;7.93;;;7.10;93.40;;;;;;5092353;28;20374;-79
2023/12/15 10:53:34;;;;;;;28.15;7.65;;;7.20;93.50;;;;;;5107711;28;20114;-79
2023/12/15 10:56:00;;;;;;;38.20;8.32;;;7.20;93.50;;;;;;5109508;28;20035;-79
2023/12/15 10:58:26;;;;;;;34.90;8.35;;;7.20;93.60;;;;;;5090992;28;20036;-80
2023/12/15 11:00:53;;;;;;;35.50;8.57;;;7.30;93.60;;;;;;5109433;28;20119;-79
2023/12/15 11:03:19;;;;;;;32.13;8.20;;;7.40;93.70;;;;;;5095532;28;20039;-82
2023/12/15 11:05:45;;;;;;;25.27;7.47;;;7.50;93.80;;;;;;5114123;28;20065;-80
2023/12/15 11:08:12;;;;;;;38.55;9.02;;;7.50;93.80;;;;;;5091586;28;20027;-79
2023/12/15 11:10:37;;;;;;;31.00;7.40;;;7.60;93.80;;;;;;5109536;28;20047;-79
2023/12/15 11:13:04;;;;;;;33.33;8.10;;;7.70;93.90;;;;;;5090527;28;20039;-79
2023/12/15 11:15:30;;;;;;;35.20;7.90;;;7.80;93.90;;;;;;5111232;28;20047;-80
2023/12/15 11:17:58;;;;;;;33.90;8.88;;;7.80;94.00;;;;;;5107480;28;20049;-80
2023/12/15 11:20:25;;;;;;;35.33;8.75;;;7.90;94.00;;;;;;5103817;28;20036;-79
2023/12/15 11:22:58;;;;;;;30.38;8.10;;;7.90;94.00;;;;;;5105453;28;20113;-79
2023/12/15 11:25:35;;;;;;;41.72;8.43;;;8.00;94.10;;;;;;5107502;28;20143;-79
2023/12/15 11:28:09;;;;;;;25.55;6.72;;;8.00;94.30;;;;;;5110286;28;20027;-79
2023/12/15 11:30:42;;;;;;;;;;;8.10;94.10;;;;;;5113149;28;20077;-79
2023/12/15 11:33:26;;;;;;;31.80;7.32;;;8.10;94.00;;;;;;5094516;28;19916;-79
2023/12/15 11:36:00;;;;;;;32.53;7.45;;;8.10;94.20;;;;;;5124873;27;20047;-79
2023/12/15 11:38:26;;;;;;;28.08;6.93;;;8.20;94.10;;;;;;5118514;27;20094;-80
2023/12/15 11:40:55;;;;;;;28.23;5.78;;;8.30;94.20;;;;;;5113983;27;20502;-79
2023/12/15 11:43:23;;;;;;;31.17;5.85;;;8.30;94.20;;;;;;5107227;27;20050;-79
2023/12/15 11:45:52;;;;;;;32.65;7.47;;;8.30;94.20;;;;;;5106811;28;20566;-79
2023/12/15 11:48:18;;;;;;;31.73;7.15;;;8.50;94.20;;;;;;5103617;28;20413;-79
2023/12/15 11:50:46;;;;;;;28.90;6.13;;;8.50;94.20;;;;;;5108758;27;20046;-80
2023/12/15 11:53:15;;;;;;;26.98;5.57;;;8.50;94.20;;;;;;5107241;27;20115;-80
2023/12/15 11:55:50;;;;;;;31.63;5.97;;;8.60;94.20;;;;;;5114860;27;20052;-80
2023/12/15 11:58:18;;;;;;;30.48;6.22;;;8.60;94.20;;;;;;5133927;27;20037;-81
2023/12/15 12:00:44;;;;;;;23.25;5.97;;;8.70;94.20;;;;;;5110702;27;20386;-82
2023/12/15 12:03:13;;;;;;;25.98;6.28;;;8.70;94.20;;;;;;5094961;27;20035;-84
2023/12/15 12:05:41;;;;;;;33.92;6.95;;;8.80;94.50;;;;;;5110363;27;20031;-82
2023/12/15 12:08:08;;;;;;;30.67;6.18;;;8.80;94.20;;;;;;5111921;27;20559;-82
2023/12/15 12:10:39;;;;;;;28.02;6.53;;;8.80;94.20;;;;;;5107459;27;20042;-81
2023/12/15 12:13:06;;;;;;;31.17;6.35;;;8.90;94.30;;;;;;5106656;27;20039;-79
2023/12/15 12:15:32;;;;;;;28.13;6.78;;;9.00;94.20;;;;;;5105642;27;20035;-78
2023/12/15 12:17:59;;;;;;;20.70;5.40;;;9.00;94.20;;;;;;5108019;27;20108;-78
2023/12/15 12:20:28;;;;;;;27.88;5.88;;;9.00;94.20;;;;;;5120397;27;20491;-78
2023/12/15 12:22:55;;;;;;;23.90;5.47;;;9.00;94.20;;;;;;5120971;27;20043;-78
2023/12/15 12:25:22;;;;;;;24.40;5.85;;;9.10;94.10;;;;;;5126054;27;20390;-78
2023/12/15 12:27:50;;;;;;;23.17;5.45;;;9.10;94.10;;;;;;5125889;27;20039;-78
2023/12/15 12:30:17;;;;;;;30.02;5.75;;;9.10;94.00;;;;;;5125182;27;20054;-78
2023/12/15 12:32:47;;;;;;;24.10;5.82;;;9.10;94.00;;;;;;5101462;28;20048;-78
2023/12/15 12:35:12;;;;;;;22.75;5.28;;;9.20;94.00;;;;;;5123785;27;20436;-78